createdAt,value
2023-01-28T00:00:52.573Z,5.60
2023-01-28T00:03:18.647Z,6.70
2023-01-28T00:05:44.731Z,5.60
2023-01-28T00:08:10.995Z,6.60
2023-01-28T00:10:40.311Z,6.20
2023-01-28T00:13:07.133Z,5.40
2023-01-28T00:15:33.450Z,6.80
2023-01-28T00:17:59.917Z,6.10
2023-01-28T00:20:25.919Z,5.80
2023-01-28T00:22:52.251Z,5.40
2023-01-28T00:25:19.156Z,5.90
2023-01-28T00:27:45.307Z,5.70
2023-01-28T00:30:11.809Z,5.40
2023-01-28T00:32:37.690Z,6.10
2023-01-28T00:35:03.811Z,5.90
2023-01-28T00:37:29.711Z,5.90
2023-01-28T00:39:58.181Z,5.60
2023-01-28T00:42:24.049Z,6.20
2023-01-28T00:44:50.154Z,5.60
2023-01-28T00:47:16.101Z,6.30
2023-01-28T00:49:42.039Z,6.40
2023-01-28T00:52:08.506Z,5.60
2023-01-28T00:54:37.011Z,5.80
2023-01-28T00:57:03.049Z,5.90
2023-01-28T00:59:28.955Z,6.50
2023-01-28T01:02:12.088Z,6.70
2023-01-28T01:04:39.443Z,5.60
2023-01-28T01:07:06.031Z,5.90
2023-01-28T01:09:31.985Z,5.30
2023-01-28T01:11:57.875Z,5.50
2023-01-28T01:14:23.802Z,5.10
2023-01-28T01:16:49.813Z,4.90
2023-01-28T01:19:18.364Z,5.00
2023-01-28T01:21:49.756Z,6.50
2023-01-28T01:24:15.779Z,5.80
2023-01-28T01:26:41.785Z,6.10
2023-01-28T01:29:09.160Z,5.80
2023-01-28T01:31:35.126Z,6.20
2023-01-28T01:34:01.094Z,5.50
2023-01-28T01:36:27.163Z,6.10
2023-01-28T01:38:54.449Z,5.40
2023-01-28T01:41:31.956Z,5.70
2023-01-28T01:44:00.211Z,5.30
2023-01-28T01:46:39.204Z,5.90
2023-01-28T01:49:18.790Z,6.20
2023-01-28T01:51:48.216Z,5.80
2023-01-28T01:54:15.646Z,6.00
2023-01-28T01:56:44.646Z,6.40
2023-01-28T01:59:15.070Z,6.00
2023-01-28T02:01:42.021Z,6.10
2023-01-28T02:04:10.559Z,6.20
2023-01-28T02:06:38.064Z,6.70
2023-01-28T02:09:21.313Z,5.80
2023-01-28T02:11:50.801Z,5.60
2023-01-28T02:14:30.503Z,5.40
2023-01-28T02:19:29.317Z,4.50
2023-01-28T02:22:17.643Z,5.70
2023-01-28T02:24:53.513Z,5.30
2023-01-28T02:27:50.218Z,6.20
2023-01-28T02:30:24.606Z,5.00
2023-01-28T02:32:59.802Z,5.60
2023-01-28T02:35:37.601Z,5.50
2023-01-28T02:38:08.911Z,5.20
2023-01-28T02:40:57.868Z,5.70
2023-01-28T02:43:45.562Z,5.20
2023-01-28T02:46:34.451Z,4.80
2023-01-28T02:49:03.547Z,5.00
2023-01-28T02:51:47.935Z,6.00
2023-01-28T02:54:53.066Z,5.10
2023-01-28T02:57:37.891Z,5.40
2023-01-28T03:00:23.842Z,5.90
2023-01-28T03:03:16.218Z,4.70
2023-01-28T03:06:06.196Z,6.60
2023-01-28T03:09:17.233Z,5.30
2023-01-28T03:12:06.829Z,4.90
2023-01-28T03:14:53.969Z,5.90
2023-01-28T03:17:45.074Z,7.10
2023-01-28T03:20:31.829Z,5.50
2023-01-28T03:23:21.059Z,5.80
2023-01-28T03:26:10.478Z,4.60
2023-01-28T03:28:58.026Z,4.70
2023-01-28T03:31:44.280Z,4.80
2023-01-28T03:34:31.385Z,5.10
2023-01-28T03:36:59.050Z,5.30
2023-01-28T03:39:37.423Z,5.60
2023-01-28T03:42:09.566Z,5.30
2023-01-28T03:44:52.920Z,5.00
2023-01-28T03:47:20.892Z,5.20
2023-01-28T03:49:49.203Z,5.60
2023-01-28T03:52:27.501Z,5.30
2023-01-28T03:55:00.312Z,5.30
2023-01-28T03:57:27.510Z,6.50
2023-01-28T03:59:53.791Z,6.00
2023-01-28T04:02:22.585Z,5.60
2023-01-28T04:04:50.682Z,5.50
2023-01-28T04:07:17.456Z,4.80
2023-01-28T04:10:03.707Z,5.30
2023-01-28T04:12:40.968Z,5.00
2023-01-28T04:15:14.891Z,4.90
2023-01-28T04:17:44.891Z,5.00
2023-01-28T04:20:13.624Z,4.90
2023-01-28T04:22:39.861Z,5.30
2023-01-28T04:25:09.407Z,4.60
2023-01-28T04:27:35.668Z,5.30
2023-01-28T04:30:11.122Z,5.10
2023-01-28T04:32:40.249Z,5.00
2023-01-28T04:35:34.005Z,5.20
2023-01-28T04:38:18.907Z,6.10
2023-01-28T04:41:14.248Z,5.60
2023-01-28T04:43:40.395Z,5.30
2023-01-28T04:46:27.178Z,5.20
2023-01-28T04:49:01.445Z,5.50
2023-01-28T04:51:38.974Z,4.90
2023-01-28T04:54:16.719Z,5.00
2023-01-28T04:56:42.975Z,5.50
2023-01-28T04:59:09.349Z,5.40
2023-01-28T05:01:35.480Z,5.50
2023-01-28T05:04:04.950Z,5.40
2023-01-28T05:06:33.596Z,5.40
2023-01-28T05:09:08.417Z,5.30
2023-01-28T05:11:35.249Z,6.50
2023-01-28T05:14:04.183Z,5.40
2023-01-28T05:16:37.952Z,5.90
2023-01-28T05:19:04.071Z,5.10
2023-01-28T05:21:36.430Z,5.10
2023-01-28T05:24:07.051Z,6.50
2023-01-28T05:26:33.256Z,5.50
2023-01-28T05:29:00.547Z,6.00
2023-01-28T05:31:26.630Z,5.20
2023-01-28T05:33:52.732Z,6.00
2023-01-28T05:36:19.467Z,5.30
2023-01-28T05:38:45.364Z,6.40
2023-01-28T05:41:11.361Z,6.70
2023-01-28T05:43:38.095Z,6.60
2023-01-28T05:46:09.653Z,7.80
2023-01-28T05:49:00.963Z,7.40
2023-01-28T05:51:47.213Z,9.00
2023-01-28T05:54:15.862Z,7.70
2023-01-28T05:56:42.237Z,7.20
2023-01-28T05:59:11.096Z,7.80
2023-01-28T06:01:39.141Z,8.90
2023-01-28T06:04:05.120Z,8.00
2023-01-28T06:06:31.455Z,8.00
2023-01-28T06:08:57.399Z,7.70
2023-01-28T06:11:26.954Z,9.50
2023-01-28T06:13:56.160Z,7.50
2023-01-28T06:16:42.392Z,7.40
2023-01-28T06:19:25.957Z,6.90
2023-01-28T06:21:51.848Z,8.00
2023-01-28T06:24:18.899Z,7.50
2023-01-28T06:26:44.847Z,8.80
2023-01-28T06:29:11.115Z,7.70
2023-01-28T06:31:37.011Z,8.70
2023-01-28T06:34:03.432Z,8.70
2023-01-28T06:36:29.575Z,7.20
2023-01-28T06:38:55.633Z,7.00
2023-01-28T06:41:21.749Z,7.20
2023-01-28T06:43:47.727Z,7.80
2023-01-28T06:46:13.892Z,8.50
2023-01-28T06:48:39.954Z,8.00
2023-01-28T06:51:05.886Z,7.40
2023-01-28T06:53:31.814Z,7.70
2023-01-28T06:55:57.806Z,7.70
2023-01-28T06:58:23.728Z,8.30
2023-01-28T07:00:49.644Z,6.90
2023-01-28T07:03:15.850Z,7.10
2023-01-28T07:05:41.829Z,7.00
2023-01-28T07:08:08.067Z,7.20
2023-01-28T07:10:34.055Z,7.00
2023-01-28T07:12:59.936Z,6.30
2023-01-28T07:15:25.935Z,7.30
2023-01-28T07:17:51.891Z,7.90
2023-01-28T07:20:18.278Z,7.70
2023-01-28T07:22:45.552Z,8.80
2023-01-28T07:25:12.979Z,7.90
2023-01-28T07:27:39.325Z,7.70
2023-01-28T07:30:05.871Z,7.60
2023-01-28T07:32:31.833Z,6.70
2023-01-28T07:34:58.104Z,7.20
2023-01-28T07:37:24.159Z,6.40
2023-01-28T07:39:50.034Z,6.10
2023-01-28T07:42:17.579Z,7.20
2023-01-28T07:44:46.771Z,7.00
2023-01-28T07:47:12.719Z,7.20
2023-01-28T07:49:41.263Z,6.70
2023-01-28T07:52:08.533Z,6.50
2023-01-28T07:54:34.503Z,7.90
2023-01-28T07:57:00.438Z,11.50
2023-01-28T07:59:26.561Z,9.60
2023-01-28T08:01:54.995Z,11.00
2023-01-28T08:04:21.539Z,9.30
2023-01-28T08:06:47.984Z,7.70
2023-01-28T08:09:14.011Z,7.60
2023-01-28T08:11:40.060Z,8.00
2023-01-28T08:14:06.259Z,8.10
2023-01-28T08:16:32.316Z,7.50
2023-01-28T08:18:58.273Z,7.60
2023-01-28T08:21:24.255Z,7.00
2023-01-28T08:23:50.252Z,7.70
2023-01-28T08:26:16.223Z,6.40
2023-01-28T08:28:42.315Z,7.20
2023-01-28T08:31:08.621Z,6.60
2023-01-28T08:33:34.600Z,7.40
2023-01-28T08:36:04.628Z,7.40
2023-01-28T08:38:30.608Z,7.00
2023-01-28T08:40:57.286Z,7.10
2023-01-28T08:43:23.411Z,7.50
2023-01-28T08:45:49.798Z,8.00
2023-01-28T08:48:18.003Z,7.90
2023-01-28T08:50:44.602Z,9.60
2023-01-28T08:53:16.956Z,7.80
2023-01-28T08:55:42.918Z,7.90
2023-01-28T08:58:13.899Z,8.10
2023-01-28T09:00:40.049Z,7.80
2023-01-28T09:03:06.695Z,8.40
2023-01-28T09:05:37.126Z,7.90
2023-01-28T09:08:09.080Z,8.20
2023-01-28T09:10:39.214Z,8.30
2023-01-28T09:13:12.681Z,9.00
2023-01-28T09:15:38.739Z,7.90
2023-01-28T09:18:05.472Z,7.80
2023-01-28T09:20:32.750Z,8.30
2023-01-28T09:23:00.716Z,8.40
2023-01-28T09:25:26.827Z,8.70
2023-01-28T09:27:53.020Z,8.90
2023-01-28T09:30:19.196Z,7.80
2023-01-28T09:32:48.832Z,9.00
2023-01-28T09:35:15.872Z,9.20
2023-01-28T09:37:41.820Z,8.50
2023-01-28T09:40:25.075Z,8.60
2023-01-28T09:43:04.031Z,8.70
2023-01-28T09:45:39.710Z,8.70
2023-01-28T09:48:14.144Z,8.90
2023-01-28T09:50:44.834Z,9.80
2023-01-28T09:53:23.894Z,8.90
2023-01-28T09:55:55.169Z,8.90
2023-01-28T09:58:21.309Z,8.10
2023-01-28T10:01:15.352Z,7.50
2023-01-28T10:04:00.289Z,9.00
2023-01-28T10:06:32.269Z,11.30
2023-01-28T10:09:16.028Z,8.40
2023-01-28T10:12:09.624Z,9.00
2023-01-28T10:14:57.478Z,9.00
2023-01-28T10:17:44.582Z,12.00
2023-01-28T10:20:10.544Z,10.20
2023-01-28T10:22:49.168Z,10.60
2023-01-28T10:25:25.411Z,9.40
2023-01-28T10:27:51.620Z,8.80
2023-01-28T10:30:19.571Z,9.50
2023-01-28T10:33:01.327Z,8.70
2023-01-28T10:35:28.727Z,9.10
2023-01-28T10:38:01.502Z,11.30
2023-01-28T10:40:28.246Z,8.50
2023-01-28T10:42:54.130Z,9.30
2023-01-28T10:45:24.690Z,9.30
2023-01-28T10:47:55.947Z,8.80
2023-01-28T10:50:25.849Z,8.30
2023-01-28T10:52:57.214Z,9.00
2023-01-28T10:55:27.299Z,7.20
2023-01-28T10:57:54.074Z,8.40
2023-01-28T11:00:20.028Z,8.50
2023-01-28T11:02:48.774Z,8.50
2023-01-28T11:05:18.403Z,8.20
2023-01-28T11:07:44.550Z,7.40
2023-01-28T11:10:34.286Z,8.60
2023-01-28T11:13:05.750Z,8.10
2023-01-28T11:15:32.698Z,7.80
2023-01-28T11:18:08.403Z,8.00
2023-01-28T11:20:40.667Z,7.20
2023-01-28T11:23:06.714Z,8.30
2023-01-28T11:25:37.507Z,7.80
2023-01-28T11:28:16.994Z,7.70
2023-01-28T11:30:43.012Z,6.80
2023-01-28T11:33:11.921Z,7.20
2023-01-28T11:35:38.106Z,7.60
2023-01-28T11:38:18.126Z,7.40
2023-01-28T11:40:56.009Z,6.90
2023-01-28T11:43:27.615Z,7.60
2023-01-28T11:45:56.334Z,7.40
2023-01-28T11:48:41.119Z,7.50
2023-01-28T11:51:24.527Z,7.20
2023-01-28T11:54:20.760Z,5.50
2023-01-28T11:56:55.801Z,4.20
2023-01-28T11:59:37.063Z,5.30
2023-01-28T12:02:34.376Z,6.90
2023-01-28T12:05:27.081Z,6.70
2023-01-28T12:08:08.153Z,6.80
2023-01-28T12:10:49.704Z,6.40
2023-01-28T12:14:00.612Z,5.90
2023-01-28T12:16:32.838Z,6.60
2023-01-28T12:19:21.376Z,5.80
2023-01-28T12:22:09.182Z,5.90
2023-01-28T12:24:40.960Z,5.70
2023-01-28T12:27:30.360Z,6.20
2023-01-28T12:30:29.076Z,4.90
2023-01-28T12:33:17.255Z,5.30
2023-01-28T12:36:15.761Z,4.30
2023-01-28T12:39:21.639Z,5.00
2023-01-28T12:41:55.479Z,5.20
2023-01-28T12:44:39.633Z,4.50
2023-01-28T12:47:11.767Z,4.30
2023-01-28T12:49:50.103Z,5.10
2023-01-28T12:52:25.685Z,3.60
2023-01-28T12:55:06.414Z,4.90
2023-01-28T12:57:34.678Z,4.90
2023-01-28T13:00:28.332Z,4.80
2023-01-28T13:03:09.461Z,4.90
2023-01-28T13:05:41.263Z,4.30
2023-01-28T13:08:20.109Z,4.30
2023-01-28T13:10:47.214Z,4.50
2023-01-28T13:13:33.329Z,3.60
2023-01-28T13:16:01.016Z,4.40
2023-01-28T13:18:47.220Z,4.10
2023-01-28T13:21:34.641Z,4.40
2023-01-28T13:24:20.082Z,4.00
2023-01-28T13:29:14.881Z,3.60
2023-01-28T13:31:43.734Z,4.50
2023-01-28T13:34:35.586Z,5.60
2023-01-28T13:37:21.532Z,6.00
2023-01-28T13:39:51.841Z,5.10
2023-01-28T13:42:29.306Z,5.30
2023-01-28T13:45:07.681Z,5.00
2023-01-28T13:47:37.020Z,5.30
2023-01-28T13:50:06.932Z,6.30
2023-01-28T13:52:43.690Z,6.30
2023-01-28T13:55:12.995Z,6.00
2023-01-28T13:58:09.434Z,5.30
2023-01-28T14:00:47.564Z,6.70
2023-01-28T14:03:33.053Z,5.50
2023-01-28T14:06:23.803Z,6.30
2023-01-28T14:09:14.568Z,5.40
2023-01-28T14:12:28.706Z,6.80
2023-01-28T14:15:32.386Z,5.50
2023-01-28T14:18:00.064Z,5.30
2023-01-28T14:20:37.033Z,6.40
2023-01-28T14:23:05.728Z,5.80
2023-01-28T14:25:55.380Z,5.50
2023-01-28T14:28:36.450Z,5.60
2023-01-28T14:31:10.884Z,6.40
2023-01-28T14:33:38.144Z,5.20
2023-01-28T14:36:04.555Z,5.70
2023-01-28T14:38:38.057Z,6.10
2023-01-28T14:41:04.473Z,5.40
2023-01-28T14:43:30.985Z,5.60
2023-01-28T14:46:12.982Z,8.20
2023-01-28T14:48:41.707Z,6.80
2023-01-28T14:51:33.473Z,5.90
2023-01-28T14:54:29.780Z,6.30
2023-01-28T14:57:17.349Z,6.20
2023-01-28T14:59:54.418Z,5.10
2023-01-28T15:02:23.350Z,5.80
2023-01-28T15:04:51.190Z,5.40
2023-01-28T15:07:23.258Z,6.00
2023-01-28T15:10:05.850Z,5.70
2023-01-28T15:12:39.042Z,6.30
2023-01-28T15:15:19.015Z,6.80
2023-01-28T15:20:18.627Z,5.00
2023-01-28T15:22:45.154Z,7.20
2023-01-28T15:25:23.512Z,6.80
2023-01-28T15:27:51.952Z,6.30
2023-01-28T15:30:24.640Z,8.30
2023-01-28T15:32:58.858Z,7.60
2023-01-28T15:35:24.897Z,5.40
2023-01-28T15:37:50.939Z,5.70
2023-01-28T15:40:20.278Z,6.00
2023-01-28T15:42:47.711Z,9.00
2023-01-28T15:47:41.741Z,7.70
2023-01-28T15:50:17.022Z,5.40
2023-01-28T15:52:45.409Z,6.00
2023-01-28T15:55:33.014Z,6.20
2023-01-28T15:58:11.748Z,7.00
2023-01-28T16:00:38.083Z,6.00
2023-01-28T16:03:09.164Z,5.50
2023-01-28T16:05:40.640Z,5.50
2023-01-28T16:08:25.935Z,7.40
2023-01-28T16:10:53.655Z,6.90
2023-01-28T16:13:23.620Z,6.20
2023-01-28T16:15:52.471Z,5.00
2023-01-28T16:18:40.108Z,6.40
2023-01-28T16:21:11.257Z,5.30
2023-01-28T16:23:39.731Z,5.70
2023-01-28T16:26:25.962Z,5.60
2023-01-28T16:28:52.206Z,5.30
2023-01-28T16:31:18.780Z,5.30
2023-01-28T16:33:45.185Z,4.50
2023-01-28T16:36:13.523Z,5.70
2023-01-28T16:38:40.377Z,6.30
2023-01-28T16:41:15.253Z,5.90
2023-01-28T16:43:41.201Z,6.20
2023-01-28T16:46:10.744Z,5.10
2023-01-28T16:48:36.800Z,5.80
2023-01-28T16:51:04.132Z,5.50
2023-01-28T16:53:33.072Z,5.80
2023-01-28T16:56:00.100Z,6.80
2023-01-28T16:58:26.916Z,6.30
2023-01-28T17:00:54.359Z,6.70
2023-01-28T17:03:21.796Z,6.70
2023-01-28T17:05:47.859Z,6.30
2023-01-28T17:08:13.907Z,6.50
2023-01-28T17:10:39.902Z,7.70
2023-01-28T17:13:05.978Z,8.10
2023-01-28T17:15:34.672Z,7.80
2023-01-28T17:18:00.793Z,7.80
2023-01-28T17:20:26.837Z,9.60
2023-01-28T17:22:52.767Z,8.90
2023-01-28T17:25:18.777Z,8.80
2023-01-28T17:27:44.789Z,6.70
2023-01-28T17:30:11.183Z,7.80
2023-01-28T17:32:37.126Z,7.40
2023-01-28T17:35:03.300Z,7.00
2023-01-28T17:37:29.179Z,7.30
2023-01-28T17:39:55.176Z,8.00
2023-01-28T17:42:21.114Z,7.10
2023-01-28T17:44:47.049Z,6.70
2023-01-28T17:47:13.101Z,6.40
2023-01-28T17:49:39.044Z,5.50
2023-01-28T17:52:05.172Z,5.90
2023-01-28T17:54:31.151Z,6.50
2023-01-28T17:56:57.772Z,7.30
2023-01-28T17:59:25.595Z,7.00
2023-01-28T18:01:53.954Z,7.10
2023-01-28T18:04:19.940Z,5.20
2023-01-28T18:06:47.913Z,6.00
2023-01-28T18:09:13.948Z,6.60
2023-01-28T18:11:39.914Z,7.50
2023-01-28T18:14:06.155Z,7.40
2023-01-28T18:16:32.237Z,7.00
2023-01-28T18:18:58.177Z,7.30
2023-01-28T18:21:52.119Z,8.20
2023-01-28T18:24:19.447Z,6.60
2023-01-28T18:26:45.379Z,7.80
2023-01-28T18:29:15.947Z,9.20
2023-01-28T18:31:41.950Z,8.90
2023-01-28T18:34:07.882Z,10.40
2023-01-28T18:36:33.862Z,10.70
2023-01-28T18:38:59.730Z,12.40
2023-01-28T18:41:25.742Z,10.70
2023-01-28T18:43:51.609Z,11.10
2023-01-28T18:46:17.945Z,11.20
2023-01-28T18:48:43.962Z,11.80
2023-01-28T18:51:27.752Z,11.30
2023-01-28T18:53:59.187Z,8.70
2023-01-28T18:56:26.765Z,10.00
2023-01-28T18:58:57.780Z,10.40
2023-01-28T19:01:24.183Z,9.20
2023-01-28T19:03:50.275Z,9.50
2023-01-28T19:06:16.367Z,9.10
2023-01-28T19:08:42.324Z,9.70
2023-01-28T19:11:08.370Z,9.70
2023-01-28T19:13:34.391Z,9.60
2023-01-28T19:16:02.440Z,10.00
2023-01-28T19:18:28.396Z,9.30
2023-01-28T19:20:54.367Z,8.60
2023-01-28T19:23:20.423Z,7.30
2023-01-28T19:25:46.436Z,7.20
2023-01-28T19:28:12.426Z,9.00
2023-01-28T19:30:38.586Z,7.70
2023-01-28T19:33:06.041Z,7.80
2023-01-28T19:35:34.828Z,8.40
2023-01-28T19:38:01.343Z,6.40
2023-01-28T19:40:27.257Z,8.70
2023-01-28T19:42:53.674Z,7.60
2023-01-28T19:45:20.341Z,6.40
2023-01-28T19:47:46.561Z,6.50
2023-01-28T19:50:13.029Z,7.50
2023-01-28T19:52:39.038Z,8.30
2023-01-28T19:55:06.901Z,7.60
2023-01-28T19:59:58.709Z,7.50
2023-01-28T20:02:24.626Z,8.00
2023-01-28T20:05:00.238Z,8.60
2023-01-28T20:07:27.118Z,7.40
2023-01-28T20:09:53.046Z,8.10
2023-01-28T20:12:18.919Z,7.70
2023-01-28T20:14:46.421Z,7.20
2023-01-28T20:17:12.435Z,7.60
2023-01-28T20:19:38.388Z,7.90
2023-01-28T20:22:05.148Z,7.80
2023-01-28T20:24:31.171Z,7.20
2023-01-28T20:26:57.143Z,8.30
2023-01-28T20:29:23.137Z,9.40
2023-01-28T20:32:05.378Z,9.50
2023-01-28T20:34:36.140Z,10.20
2023-01-28T20:37:03.286Z,10.70
2023-01-28T20:39:29.213Z,11.70
2023-01-28T20:41:55.189Z,12.20
2023-01-28T20:44:21.224Z,11.30
2023-01-28T20:46:47.154Z,14.40
2023-01-28T20:49:13.177Z,12.50
2023-01-28T20:51:39.095Z,11.70
2023-01-28T20:54:05.195Z,9.90
2023-01-28T20:56:31.700Z,8.40
2023-01-28T20:59:00.347Z,7.00
2023-01-28T21:01:35.890Z,7.10
2023-01-28T21:04:03.471Z,7.60
2023-01-28T21:06:29.474Z,8.80
2023-01-28T21:08:56.411Z,8.90
2023-01-28T21:11:24.148Z,8.50
2023-01-28T21:16:17.164Z,7.00
2023-01-28T21:18:43.875Z,7.20
2023-01-28T21:21:15.893Z,7.40
2023-01-28T21:23:41.792Z,7.00
2023-01-28T21:26:08.100Z,7.20
2023-01-28T21:28:34.170Z,6.90
2023-01-28T21:31:21.838Z,6.30
2023-01-28T21:33:54.205Z,7.20
2023-01-28T21:36:21.699Z,7.10
2023-01-28T21:38:52.984Z,6.80
2023-01-28T21:41:19.346Z,7.50
2023-01-28T21:43:48.876Z,6.90
2023-01-28T21:46:14.922Z,7.00
2023-01-28T21:48:40.817Z,7.00
2023-01-28T21:51:26.355Z,7.10
2023-01-28T21:53:52.802Z,6.40
2023-01-28T21:56:18.931Z,7.60
2023-01-28T21:59:03.629Z,6.40
2023-01-28T22:01:29.602Z,6.60
2023-01-28T22:03:55.543Z,7.40
2023-01-28T22:06:21.600Z,6.50
2023-01-28T22:08:47.515Z,5.90
2023-01-28T22:11:13.505Z,7.10
2023-01-28T22:13:39.517Z,7.00
2023-01-28T22:16:06.065Z,6.70
2023-01-28T22:18:32.217Z,7.10
2023-01-28T22:21:05.681Z,7.20
2023-01-28T22:23:32.226Z,7.00
2023-01-28T22:26:00.244Z,6.80
2023-01-28T22:28:27.636Z,6.80
2023-01-28T22:30:54.739Z,6.90
2023-01-28T22:33:21.589Z,7.00
2023-01-28T22:35:48.089Z,6.90
2023-01-28T22:38:14.377Z,7.10
2023-01-28T22:40:40.311Z,7.40
2023-01-28T22:43:06.369Z,7.10
2023-01-28T22:45:32.341Z,8.00
2023-01-28T22:47:58.212Z,6.80
2023-01-28T22:50:24.130Z,7.90
2023-01-28T22:52:51.536Z,6.50
2023-01-28T22:55:17.619Z,6.80
2023-01-28T22:57:43.652Z,7.00
2023-01-28T23:00:12.554Z,6.90
2023-01-28T23:02:38.559Z,6.50
2023-01-28T23:05:05.721Z,6.50
2023-01-28T23:07:32.371Z,5.50
2023-01-28T23:09:58.421Z,6.30
2023-01-28T23:12:24.359Z,6.10
2023-01-28T23:15:09.306Z,6.40
2023-01-28T23:17:53.860Z,6.30
2023-01-28T23:20:38.256Z,6.50
2023-01-28T23:23:23.841Z,5.40
2023-01-28T23:25:49.721Z,5.60
2023-01-28T23:28:15.670Z,6.20
2023-01-28T23:30:42.655Z,7.40
2023-01-28T23:33:09.503Z,6.90
2023-01-28T23:35:35.470Z,6.60
2023-01-28T23:38:01.414Z,6.40
2023-01-28T23:40:27.437Z,6.30
2023-01-28T23:42:55.006Z,6.10
2023-01-28T23:45:21.329Z,7.10
2023-01-28T23:47:48.304Z,6.40
2023-01-28T23:50:14.932Z,6.10
2023-01-28T23:52:41.338Z,5.80
2023-01-28T23:55:07.572Z,6.70
2023-01-28T23:57:35.542Z,6.70
